Time;durP1;ratioP1;P1;durP2;ratioP2;P2;SDS_P1;SDS_P2;PMS_P1;PMS_P2;Temp;Humidity;BMP_temperature;BMP_pressure;BME280_temperature;BME280_humidity;BME280_pressure;Samples;Min_cycle;Max_cycle;Signal;HPM_P1;HPM_P2
2021/08/28 00:01:08;;;;;;;0.50;0.30;;;;;;;;;;5044226;28;20859;-56
2021/08/28 00:03:34;;;;;;;0.90;0.60;;;;;;;;;;5042542;28;20884;-55
2021/08/28 00:06:00;;;;;;;0.60;0.50;;;;;;;;;;5026874;28;20733;-55
2021/08/28 00:08:26;;;;;;;0.60;0.50;;;;;;;;;;5040031;28;20417;-54
2021/08/28 00:10:52;;;;;;;0.70;0.50;;;;;;;;;;5049806;28;20480;-59
2021/08/28 00:13:18;;;;;;;0.60;0.50;;;;;;;;;;5052001;28;20468;-58
2021/08/28 00:15:44;;;;;;;1.00;0.55;;;;;;;;;;5047930;28;20445;-59
2021/08/28 00:18:10;;;;;;;0.50;0.50;;;;;;;;;;5037328;28;20787;-59
2021/08/28 00:20:37;;;;;;;0.60;0.50;;;;;;;;;;5057018;28;20466;-59
2021/08/28 00:23:04;;;;;;;0.50;0.43;;;;;;;;;;5040195;28;20484;-55
2021/08/28 00:25:30;;;;;;;0.55;0.43;;;;;;;;;;5041070;28;20958;-58
2021/08/28 00:27:56;;;;;;;0.60;0.40;;;;;;;;;;5035010;28;20415;-57
2021/08/28 00:30:22;;;;;;;0.70;0.50;;;;;;;;;;5055620;28;20753;-53
2021/08/28 00:32:48;;;;;;;0.63;0.60;;;;;;;;;;5036420;28;20530;-58
2021/08/28 00:35:14;;;;;;;0.60;0.50;;;;;;;;;;5044143;28;20393;-53
2021/08/28 00:37:40;;;;;;;0.55;0.43;;;;;;;;;;5035918;28;20453;-57
2021/08/28 00:40:07;;;;;;;0.60;0.60;;;;;;;;;;5049388;28;20428;-57
2021/08/28 00:42:33;;;;;;;0.75;0.60;;;;;;;;;;5041537;28;20576;-57
2021/08/28 00:44:59;;;;;;;0.60;0.47;;;;;;;;;;5042825;28;20405;-54
2021/08/28 00:47:26;;;;;;;0.80;0.50;;;;;;;;;;5038846;28;20482;-57
2021/08/28 00:49:52;;;;;;;0.90;0.40;;;;;;;;;;5046868;28;20411;-55
2021/08/28 00:52:18;;;;;;;0.75;0.50;;;;;;;;;;5043175;28;20572;-56
2021/08/28 00:54:45;;;;;;;1.20;0.43;;;;;;;;;;5046183;28;20423;-55
2021/08/28 00:57:11;;;;;;;0.30;0.30;;;;;;;;;;5054074;28;20466;-56
2021/08/28 00:59:37;;;;;;;0.80;0.40;;;;;;;;;;5047241;28;20472;-56
2021/08/28 01:02:07;;;;;;;0.60;0.50;;;;;;;;;;5046434;28;20417;-59
2021/08/28 01:04:57;;;;;;;0.85;0.60;;;;;;;;;;5046740;28;20760;-58
2021/08/28 01:07:28;;;;;;;0.60;0.50;;;;;;;;;;5049135;28;20993;-58
2021/08/28 01:09:56;;;;;;;0.45;0.45;;;;;;;;;;5044705;28;20474;-59
2021/08/28 01:12:26;;;;;;;0.50;0.40;;;;;;;;;;5045364;28;20399;-59
2021/08/28 01:14:56;;;;;;;0.30;0.30;;;;;;;;;;5046516;28;21397;-60
2021/08/28 01:17:23;;;;;;;0.70;0.50;;;;;;;;;;5035071;28;20473;-59
2021/08/28 01:19:59;;;;;;;0.63;0.60;;;;;;;;;;5037711;28;20527;-60
2021/08/28 01:22:25;;;;;;;0.70;0.50;;;;;;;;;;5042833;28;20523;-60
2021/08/28 01:24:51;;;;;;;0.60;0.40;;;;;;;;;;5048137;28;20408;-58
2021/08/28 01:27:24;;;;;;;0.50;0.43;;;;;;;;;;5043189;28;21154;-59
2021/08/28 01:29:52;;;;;;;1.15;0.70;;;;;;;;;;5044145;28;20471;-58
2021/08/28 01:32:18;;;;;;;0.77;0.50;;;;;;;;;;5053092;28;20385;-59
2021/08/28 01:34:45;;;;;;;0.80;0.70;;;;;;;;;;5040429;28;20385;-59
2021/08/28 01:37:12;;;;;;;0.80;0.60;;;;;;;;;;5054314;28;20402;-59
2021/08/28 01:39:39;;;;;;;0.70;0.60;;;;;;;;;;5043156;28;20738;-59
2021/08/28 01:42:06;;;;;;;0.57;0.50;;;;;;;;;;5056426;28;20377;-58
2021/08/28 01:44:33;;;;;;;0.50;0.50;;;;;;;;;;5034990;28;20752;-59
2021/08/28 01:46:59;;;;;;;1.08;0.70;;;;;;;;;;5047235;28;20388;-59
2021/08/28 01:49:25;;;;;;;0.97;0.67;;;;;;;;;;5046807;28;20896;-58
2021/08/28 01:51:52;;;;;;;1.13;0.68;;;;;;;;;;5035866;28;20795;-59
2021/08/28 01:54:18;;;;;;;1.43;0.90;;;;;;;;;;5052221;28;20391;-58
2021/08/28 01:56:44;;;;;;;0.95;0.77;;;;;;;;;;5051639;28;20476;-59
2021/08/28 01:59:10;;;;;;;0.70;0.50;;;;;;;;;;5039340;28;20401;-58
2021/08/28 02:01:36;;;;;;;1.10;1.00;;;;;;;;;;5048239;28;20402;-57
2021/08/28 02:04:02;;;;;;;0.95;0.80;;;;;;;;;;5044274;28;20385;-60
2021/08/28 02:06:38;;;;;;;0.80;0.60;;;;;;;;;;5061667;28;20379;-60
2021/08/28 02:09:06;;;;;;;0.70;0.60;;;;;;;;;;5050793;28;20411;-60
2021/08/28 02:11:35;;;;;;;0.90;0.77;;;;;;;;;;5051686;28;20807;-60
2021/08/28 02:14:04;;;;;;;1.05;0.90;;;;;;;;;;5039304;28;20395;-58
2021/08/28 02:16:32;;;;;;;1.00;0.75;;;;;;;;;;5046169;28;20433;-59
2021/08/28 02:19:05;;;;;;;2.13;0.70;;;;;;;;;;5036422;28;20387;-60
2021/08/28 02:21:33;;;;;;;0.88;0.80;;;;;;;;;;5059307;28;20399;-60
2021/08/28 02:24:02;;;;;;;1.02;0.77;;;;;;;;;;5044886;28;20437;-58
2021/08/28 02:26:31;;;;;;;0.90;0.60;;;;;;;;;;5054933;28;20494;-60
2021/08/28 02:29:02;;;;;;;1.10;0.63;;;;;;;;;;5047110;28;20401;-60
2021/08/28 02:31:37;;;;;;;1.33;1.10;;;;;;;;;;5022772;28;20385;-59
2021/08/28 02:34:04;;;;;;;1.08;0.90;;;;;;;;;;5049395;28;20388;-59
2021/08/28 02:36:31;;;;;;;0.85;0.80;;;;;;;;;;5048026;28;20764;-59
2021/08/28 02:38:58;;;;;;;1.02;0.85;;;;;;;;;;5043976;28;20411;-59
2021/08/28 02:41:26;;;;;;;0.85;0.70;;;;;;;;;;5052738;28;20487;-59
2021/08/28 02:43:52;;;;;;;1.00;0.70;;;;;;;;;;5042796;28;20403;-59
2021/08/28 02:46:19;;;;;;;1.10;0.88;;;;;;;;;;5051994;28;20422;-59
2021/08/28 02:48:46;;;;;;;0.73;0.70;;;;;;;;;;5035230;28;20416;-59
2021/08/28 02:51:13;;;;;;;1.50;1.00;;;;;;;;;;5042698;28;20405;-59
2021/08/28 02:53:40;;;;;;;1.02;0.90;;;;;;;;;;5046504;28;20395;-59
2021/08/28 02:56:07;;;;;;;1.08;0.88;;;;;;;;;;5055457;28;20393;-58
2021/08/28 02:58:33;;;;;;;1.15;0.80;;;;;;;;;;5043277;28;20429;-60
2021/08/28 03:00:59;;;;;;;0.80;0.75;;;;;;;;;;5047244;28;20404;-59
2021/08/28 03:03:25;;;;;;;1.10;0.90;;;;;;;;;;5052489;28;20442;-60
2021/08/28 03:05:52;;;;;;;0.95;0.77;;;;;;;;;;5055156;28;20464;-60
2021/08/28 03:08:19;;;;;;;0.70;0.60;;;;;;;;;;5045274;28;20484;-60
2021/08/28 03:10:46;;;;;;;1.30;1.00;;;;;;;;;;5049042;28;20448;-59
2021/08/28 03:13:12;;;;;;;1.25;0.98;;;;;;;;;;5043166;28;20418;-57
2021/08/28 03:15:38;;;;;;;1.20;0.90;;;;;;;;;;5047106;28;20403;-58
2021/08/28 03:18:07;;;;;;;0.70;0.60;;;;;;;;;;5041309;28;20442;-60
2021/08/28 03:20:34;;;;;;;0.88;0.60;;;;;;;;;;5043448;28;20479;-60
2021/08/28 03:23:00;;;;;;;1.15;0.80;;;;;;;;;;5043129;28;20409;-58
2021/08/28 03:25:27;;;;;;;1.20;0.70;;;;;;;;;;5043629;28;20407;-59
2021/08/28 03:27:53;;;;;;;1.45;1.00;;;;;;;;;;5046835;28;20487;-58
2021/08/28 03:30:20;;;;;;;1.77;1.20;;;;;;;;;;5039424;28;20411;-58
2021/08/28 03:32:47;;;;;;;1.00;0.77;;;;;;;;;;5046286;28;20478;-59
2021/08/28 03:35:14;;;;;;;1.08;0.88;;;;;;;;;;5047471;28;20416;-59
2021/08/28 03:37:40;;;;;;;1.10;0.82;;;;;;;;;;5026087;28;20482;-59
2021/08/28 03:40:10;;;;;;;1.67;1.13;;;;;;;;;;5042252;28;20403;-59
2021/08/28 03:42:39;;;;;;;1.00;0.77;;;;;;;;;;5051894;28;20431;-58
2021/08/28 03:45:07;;;;;;;0.70;0.70;;;;;;;;;;5050878;28;20950;-58
2021/08/28 03:47:34;;;;;;;1.67;1.20;;;;;;;;;;5044141;28;20487;-57
2021/08/28 03:50:00;;;;;;;2.13;1.65;;;;;;;;;;5041737;28;20449;-59
2021/08/28 03:52:26;;;;;;;1.27;1.10;;;;;;;;;;5040830;28;20871;-58
2021/08/28 03:54:52;;;;;;;1.45;1.05;;;;;;;;;;5051806;28;20397;-59
2021/08/28 03:57:18;;;;;;;2.00;1.00;;;;;;;;;;5038201;28;20792;-60
2021/08/28 03:59:44;;;;;;;1.60;1.20;;;;;;;;;;5046149;28;20413;-59
2021/08/28 04:02:10;;;;;;;1.67;1.25;;;;;;;;;;5049154;28;20406;-59
2021/08/28 04:04:36;;;;;;;1.65;1.38;;;;;;;;;;5049431;28;20393;-60
2021/08/28 04:07:02;;;;;;;2.70;1.63;;;;;;;;;;5043234;28;20385;-57
2021/08/28 04:09:28;;;;;;;2.58;1.85;;;;;;;;;;5041886;28;20504;-60
2021/08/28 04:11:54;;;;;;;2.53;1.40;;;;;;;;;;5048890;28;20495;-59
2021/08/28 04:14:20;;;;;;;3.15;1.80;;;;;;;;;;5043312;28;20386;-58
2021/08/28 04:16:46;;;;;;;4.50;2.00;;;;;;;;;;5045095;28;20808;-58
2021/08/28 04:19:12;;;;;;;2.20;1.73;;;;;;;;;;5046865;28;20404;-59
2021/08/28 04:21:38;;;;;;;2.60;1.52;;;;;;;;;;5041725;28;20409;-58
2021/08/28 04:24:04;;;;;;;3.63;2.28;;;;;;;;;;5047054;28;21181;-58
2021/08/28 04:26:30;;;;;;;2.85;2.00;;;;;;;;;;5042825;28;20429;-58
2021/08/28 04:28:56;;;;;;;2.47;1.80;;;;;;;;;;5051402;28;20923;-57
2021/08/28 04:31:23;;;;;;;3.38;2.03;;;;;;;;;;5042639;28;20426;-58
2021/08/28 04:33:49;;;;;;;2.88;2.20;;;;;;;;;;5041662;28;20391;-58
2021/08/28 04:36:15;;;;;;;2.92;1.90;;;;;;;;;;5038152;28;20403;-59
2021/08/28 04:38:41;;;;;;;2.85;2.13;;;;;;;;;;5039289;28;20458;-58
2021/08/28 04:41:07;;;;;;;2.60;1.90;;;;;;;;;;5045918;28;20488;-59
2021/08/28 04:43:33;;;;;;;3.13;2.08;;;;;;;;;;5044170;28;20439;-60
2021/08/28 04:45:59;;;;;;;3.70;2.40;;;;;;;;;;5048390;28;20433;-58
2021/08/28 04:48:27;;;;;;;2.88;2.08;;;;;;;;;;5057301;28;20419;-59
2021/08/28 04:50:53;;;;;;;3.55;2.28;;;;;;;;;;5050849;28;20739;-59
2021/08/28 04:53:19;;;;;;;3.30;2.40;;;;;;;;;;5038460;28;20399;-60
2021/08/28 04:55:45;;;;;;;3.20;2.30;;;;;;;;;;5044171;28;20387;-60
2021/08/28 04:58:12;;;;;;;2.47;1.80;;;;;;;;;;5051942;28;20402;-59
2021/08/28 05:00:38;;;;;;;3.53;2.40;;;;;;;;;;5020708;28;20387;-60
2021/08/28 05:03:04;;;;;;;2.95;2.17;;;;;;;;;;5032739;28;20390;-59
2021/08/28 05:05:30;;;;;;;3.60;2.10;;;;;;;;;;5048679;28;20855;-58
2021/08/28 05:07:56;;;;;;;5.07;3.05;;;;;;;;;;5048097;28;20950;-57
2021/08/28 05:10:22;;;;;;;3.22;2.13;;;;;;;;;;5045404;28;20398;-59
2021/08/28 05:12:48;;;;;;;3.67;2.53;;;;;;;;;;5048005;28;20470;-58
2021/08/28 05:15:14;;;;;;;4.63;2.72;;;;;;;;;;5038223;28;20821;-59
2021/08/28 05:17:40;;;;;;;3.80;2.50;;;;;;;;;;5046154;28;20454;-59
2021/08/28 05:20:07;;;;;;;3.97;2.63;;;;;;;;;;5056529;28;20489;-60
2021/08/28 05:22:32;;;;;;;3.70;2.70;;;;;;;;;;5036398;28;20425;-59
2021/08/28 05:24:58;;;;;;;3.40;2.35;;;;;;;;;;5046838;28;20398;-58
2021/08/28 05:27:24;;;;;;;3.65;2.30;;;;;;;;;;5046075;28;20394;-59
2021/08/28 05:29:51;;;;;;;5.15;3.28;;;;;;;;;;5048572;28;20757;-60
2021/08/28 05:32:18;;;;;;;4.28;2.67;;;;;;;;;;5041330;28;20403;-60
2021/08/28 05:34:44;;;;;;;4.68;2.70;;;;;;;;;;5048680;28;20401;-60
2021/08/28 05:37:10;;;;;;;3.80;2.47;;;;;;;;;;5054564;28;20390;-60
2021/08/28 05:39:36;;;;;;;4.15;2.65;;;;;;;;;;5047083;28;20415;-60
2021/08/28 05:42:02;;;;;;;4.53;2.58;;;;;;;;;;5055536;28;20753;-60
2021/08/28 05:44:28;;;;;;;4.55;3.17;;;;;;;;;;5054822;28;20423;-59
2021/08/28 05:46:54;;;;;;;4.32;2.42;;;;;;;;;;5051495;28;20947;-57
2021/08/28 05:49:20;;;;;;;4.68;2.70;;;;;;;;;;5046070;28;20417;-59
2021/08/28 05:51:46;;;;;;;3.67;2.13;;;;;;;;;;5048997;28;20428;-57
2021/08/28 05:54:12;;;;;;;3.17;1.90;;;;;;;;;;5048952;28;20447;-57
2021/08/28 05:56:38;;;;;;;4.03;2.30;;;;;;;;;;5048593;28;20480;-58
2021/08/28 05:59:04;;;;;;;3.35;2.17;;;;;;;;;;5052702;28;20860;-59
2021/08/28 06:01:30;;;;;;;2.72;1.88;;;;;;;;;;5047403;28;20394;-59
2021/08/28 06:03:56;;;;;;;2.92;1.65;;;;;;;;;;5048807;28;20837;-59
2021/08/28 06:06:22;;;;;;;2.92;1.70;;;;;;;;;;5042819;28;20404;-56
2021/08/28 06:08:48;;;;;;;2.90;1.77;;;;;;;;;;5049047;28;20401;-56
2021/08/28 06:11:14;;;;;;;3.50;1.80;;;;;;;;;;5042050;28;20425;-58
2021/08/28 06:13:40;;;;;;;3.45;2.00;;;;;;;;;;5034442;28;20384;-58
2021/08/28 06:16:06;;;;;;;2.70;1.60;;;;;;;;;;5026027;28;20437;-60
2021/08/28 06:18:32;;;;;;;2.72;1.73;;;;;;;;;;5044433;28;20769;-57
2021/08/28 06:20:58;;;;;;;3.53;1.80;;;;;;;;;;5042061;28;20393;-59
2021/08/28 06:23:24;;;;;;;3.60;2.20;;;;;;;;;;5051897;28;20425;-59
2021/08/28 06:25:51;;;;;;;3.00;1.73;;;;;;;;;;5043916;28;20445;-59
2021/08/28 06:28:17;;;;;;;3.15;1.85;;;;;;;;;;5047348;28;20417;-58
2021/08/28 06:30:42;;;;;;;2.83;1.63;;;;;;;;;;5044886;28;20472;-60
2021/08/28 06:33:09;;;;;;;3.10;1.80;;;;;;;;;;5028315;28;20397;-59
2021/08/28 06:35:35;;;;;;;3.10;2.05;;;;;;;;;;5041435;28;20960;-58
2021/08/28 06:38:01;;;;;;;3.38;2.15;;;;;;;;;;5044117;28;20400;-59
2021/08/28 06:40:27;;;;;;;3.13;1.75;;;;;;;;;;5046171;28;20389;-59
2021/08/28 06:42:53;;;;;;;2.65;1.90;;;;;;;;;;5044612;28;20903;-58
2021/08/28 06:45:19;;;;;;;2.40;1.53;;;;;;;;;;5048071;28;20481;-59
2021/08/28 06:47:45;;;;;;;2.63;1.80;;;;;;;;;;5047617;28;20397;-57
2021/08/28 06:50:11;;;;;;;2.10;1.40;;;;;;;;;;5051191;28;20421;-58
2021/08/28 06:52:37;;;;;;;2.65;1.50;;;;;;;;;;5032526;28;20397;-59
2021/08/28 06:55:03;;;;;;;2.15;1.45;;;;;;;;;;5044464;28;20475;-59
2021/08/28 06:57:29;;;;;;;2.97;1.85;;;;;;;;;;5048907;28;20712;-59
2021/08/28 06:59:56;;;;;;;2.75;1.70;;;;;;;;;;5044725;28;20395;-57
2021/08/28 07:02:22;;;;;;;2.65;1.80;;;;;;;;;;5044112;28;20418;-60
2021/08/28 07:04:48;;;;;;;2.45;1.50;;;;;;;;;;5049125;28;20397;-60
2021/08/28 07:07:14;;;;;;;2.58;1.40;;;;;;;;;;5043032;28;20477;-59
2021/08/28 07:09:40;;;;;;;2.83;1.73;;;;;;;;;;5040319;28;20414;-60
2021/08/28 07:12:06;;;;;;;2.55;1.50;;;;;;;;;;5045336;28;20459;-59
2021/08/28 07:14:32;;;;;;;2.08;1.30;;;;;;;;;;5049933;28;20806;-58
2021/08/28 07:16:58;;;;;;;2.88;1.50;;;;;;;;;;5042916;28;20488;-57
2021/08/28 07:19:24;;;;;;;3.00;1.60;;;;;;;;;;5040382;28;20863;-57
2021/08/28 07:21:50;;;;;;;2.90;1.50;;;;;;;;;;5050484;28;20435;-59
2021/08/28 07:24:16;;;;;;;2.20;1.30;;;;;;;;;;5059323;28;20430;-57
2021/08/28 07:26:42;;;;;;;1.97;1.10;;;;;;;;;;5047885;28;20391;-59
2021/08/28 07:29:08;;;;;;;2.40;1.37;;;;;;;;;;5044147;28;20432;-57
2021/08/28 07:31:34;;;;;;;1.60;1.23;;;;;;;;;;5045643;28;20403;-59
2021/08/28 07:34:00;;;;;;;1.85;1.20;;;;;;;;;;5049058;28;20847;-58
2021/08/28 07:36:26;;;;;;;3.42;2.00;;;;;;;;;;5057090;28;20408;-58
2021/08/28 07:38:52;;;;;;;1.92;1.20;;;;;;;;;;5049207;28;20477;-57
2021/08/28 07:41:18;;;;;;;2.80;1.50;;;;;;;;;;5056092;28;20881;-59
2021/08/28 07:43:44;;;;;;;2.73;1.60;;;;;;;;;;5048293;28;20403;-57
2021/08/28 07:46:10;;;;;;;2.92;1.63;;;;;;;;;;5048695;28;20409;-59
2021/08/28 07:48:36;;;;;;;2.20;1.55;;;;;;;;;;5043725;28;20414;-60
2021/08/28 07:51:02;;;;;;;2.03;1.38;;;;;;;;;;5043952;28;20389;-60
2021/08/28 07:53:28;;;;;;;2.80;1.52;;;;;;;;;;5054597;28;20938;-60
2021/08/28 07:55:54;;;;;;;2.30;1.13;;;;;;;;;;5046326;28;20425;-58
2021/08/28 07:58:20;;;;;;;2.78;1.45;;;;;;;;;;5049371;28;20725;-59
2021/08/28 08:00:46;;;;;;;2.95;1.42;;;;;;;;;;5049518;28;20406;-58
2021/08/28 08:03:12;;;;;;;1.90;1.20;;;;;;;;;;5039718;28;20503;-58
2021/08/28 08:05:38;;;;;;;2.08;1.17;;;;;;;;;;5038336;28;20391;-58
2021/08/28 08:08:04;;;;;;;2.63;1.20;;;;;;;;;;5046797;28;20988;-60
2021/08/28 08:10:30;;;;;;;2.00;1.23;;;;;;;;;;5035475;28;20399;-59
2021/08/28 08:12:56;;;;;;;1.73;1.30;;;;;;;;;;5042057;28;20486;-57
2021/08/28 08:15:22;;;;;;;2.95;1.25;;;;;;;;;;5045538;28;20472;-60
2021/08/28 08:17:48;;;;;;;1.67;1.17;;;;;;;;;;5038756;28;20419;-56
2021/08/28 08:20:14;;;;;;;1.77;1.20;;;;;;;;;;5052403;28;20542;-59
2021/08/28 08:22:40;;;;;;;1.70;1.00;;;;;;;;;;5039593;28;20559;-59
2021/08/28 08:25:06;;;;;;;2.00;1.40;;;;;;;;;;5035515;28;20412;-58
2021/08/28 08:27:32;;;;;;;2.40;1.20;;;;;;;;;;5055039;28;20873;-57
2021/08/28 08:29:58;;;;;;;1.70;1.20;;;;;;;;;;5049016;28;20519;-57
2021/08/28 08:32:24;;;;;;;1.88;1.20;;;;;;;;;;5051753;28;20397;-58
2021/08/28 08:34:53;;;;;;;1.95;1.20;;;;;;;;;;5051299;28;20391;-60
2021/08/28 08:37:19;;;;;;;1.63;1.20;;;;;;;;;;5061617;28;20466;-60
2021/08/28 08:39:45;;;;;;;1.57;1.13;;;;;;;;;;5057069;28;20548;-60
2021/08/28 08:42:12;;;;;;;2.27;1.10;;;;;;;;;;5054692;28;20747;-59
2021/08/28 08:44:39;;;;;;;1.48;1.00;;;;;;;;;;5054510;28;20407;-60
2021/08/28 08:47:06;;;;;;;1.90;1.20;;;;;;;;;;5046579;28;20412;-59
2021/08/28 08:49:32;;;;;;;1.73;1.05;;;;;;;;;;5032617;28;20517;-59
2021/08/28 08:51:59;;;;;;;2.03;1.13;;;;;;;;;;5049564;28;20484;-59
2021/08/28 08:54:25;;;;;;;1.65;1.10;;;;;;;;;;5047501;28;20397;-58
2021/08/28 08:56:53;;;;;;;1.83;1.10;;;;;;;;;;5049402;28;20404;-59
2021/08/28 08:59:19;;;;;;;2.25;1.10;;;;;;;;;;5044554;28;20404;-58
2021/08/28 09:01:45;;;;;;;1.15;0.80;;;;;;;;;;5050451;28;20401;-59
2021/08/28 09:04:12;;;;;;;1.20;0.90;;;;;;;;;;5043996;28;20400;-58
2021/08/28 09:06:38;;;;;;;1.73;0.80;;;;;;;;;;5054749;28;20737;-59
2021/08/28 09:09:04;;;;;;;1.33;0.95;;;;;;;;;;5055334;28;20880;-56
2021/08/28 09:11:31;;;;;;;1.25;0.82;;;;;;;;;;5039132;28;20522;-58
2021/08/28 09:14:16;;;;;;;1.73;1.15;;;;;;;;;;5046647;28;20533;-57
2021/08/28 09:16:42;;;;;;;1.70;0.93;;;;;;;;;;5049935;28;20494;-58
2021/08/28 09:19:08;;;;;;;1.05;0.90;;;;;;;;;;5053753;28;20389;-59
2021/08/28 09:21:35;;;;;;;1.73;0.93;;;;;;;;;;5050896;28;20397;-58
2021/08/28 09:24:09;;;;;;;1.27;0.80;;;;;;;;;;5050486;28;20433;-59
2021/08/28 09:26:40;;;;;;;1.25;0.70;;;;;;;;;;5062327;28;20694;-58
2021/08/28 09:29:07;;;;;;;1.48;0.70;;;;;;;;;;5065541;28;20865;-59
2021/08/28 09:31:36;;;;;;;1.23;0.87;;;;;;;;;;5053583;28;20496;-59
2021/08/28 09:34:16;;;;;;;1.20;0.80;;;;;;;;;;5061371;28;20396;-57
2021/08/28 09:36:42;;;;;;;1.05;0.80;;;;;;;;;;5051265;28;20489;-57
2021/08/28 09:39:08;;;;;;;3.03;1.00;;;;;;;;;;5050910;28;20395;-58
2021/08/28 09:41:36;;;;;;;2.40;1.20;;;;;;;;;;5053071;28;20534;-60
2021/08/28 09:44:05;;;;;;;1.45;0.85;;;;;;;;;;5059811;28;20392;-60
2021/08/28 09:46:31;;;;;;;1.73;0.93;;;;;;;;;;5058158;28;20397;-60
2021/08/28 09:49:01;;;;;;;1.87;1.03;;;;;;;;;;5057933;28;20400;-59
2021/08/28 09:51:33;;;;;;;1.13;0.82;;;;;;;;;;5057953;28;20480;-60
2021/08/28 09:54:00;;;;;;;1.73;1.10;;;;;;;;;;5048448;28;20460;-59
2021/08/28 09:56:29;;;;;;;1.38;0.80;;;;;;;;;;5050428;28;20422;-59
2021/08/28 09:58:56;;;;;;;1.58;0.80;;;;;;;;;;5048021;28;20916;-57
2021/08/28 10:01:23;;;;;;;1.38;0.85;;;;;;;;;;5043168;28;20393;-59
2021/08/28 10:03:58;;;;;;;0.98;0.70;;;;;;;;;;5043514;28;20408;-58
2021/08/28 10:06:25;;;;;;;1.08;0.73;;;;;;;;;;5049544;28;20453;-59
2021/08/28 10:08:51;;;;;;;1.20;0.73;;;;;;;;;;5049502;28;20487;-57
2021/08/28 10:11:18;;;;;;;1.90;1.00;;;;;;;;;;5049941;28;20960;-59
2021/08/28 10:13:44;;;;;;;1.20;0.77;;;;;;;;;;5048449;28;21164;-59
2021/08/28 10:16:10;;;;;;;1.50;0.88;;;;;;;;;;5045356;28;20451;-59
2021/08/28 10:18:38;;;;;;;1.05;0.70;;;;;;;;;;5055757;28;20696;-59
2021/08/28 10:21:04;;;;;;;1.70;0.70;;;;;;;;;;5058429;28;20418;-59
2021/08/28 10:23:31;;;;;;;1.25;0.60;;;;;;;;;;5055337;28;20982;-58
2021/08/28 10:25:58;;;;;;;1.45;0.80;;;;;;;;;;5052680;28;20459;-58
2021/08/28 10:28:24;;;;;;;1.20;0.70;;;;;;;;;;5047570;28;20475;-59
2021/08/28 10:30:50;;;;;;;1.50;0.73;;;;;;;;;;5045536;28;20398;-59
2021/08/28 10:33:16;;;;;;;1.57;0.60;;;;;;;;;;5052128;28;20910;-60
2021/08/28 10:35:42;;;;;;;1.38;0.90;;;;;;;;;;5052841;28;20397;-60
2021/08/28 10:38:09;;;;;;;1.60;0.70;;;;;;;;;;5046179;28;20858;-59
2021/08/28 10:40:36;;;;;;;1.55;0.60;;;;;;;;;;5047990;28;20405;-58
2021/08/28 10:43:06;;;;;;;0.63;0.50;;;;;;;;;;5053023;28;20462;-59
2021/08/28 10:45:33;;;;;;;1.30;0.60;;;;;;;;;;5051883;28;20455;-58
2021/08/28 10:48:03;;;;;;;1.45;0.68;;;;;;;;;;5049474;28;20460;-59
2021/08/28 10:50:34;;;;;;;0.80;0.50;;;;;;;;;;5046981;28;20734;-58
2021/08/28 10:53:00;;;;;;;0.90;0.50;;;;;;;;;;5048518;28;20395;-60
2021/08/28 10:55:52;;;;;;;0.98;0.60;;;;;;;;;;5051071;28;20391;-59
2021/08/28 10:58:20;;;;;;;1.00;0.60;;;;;;;;;;5048474;28;20403;-57
2021/08/28 11:00:51;;;;;;;1.35;0.73;;;;;;;;;;5053785;28;20455;-58
2021/08/28 11:03:26;;;;;;;1.20;0.70;;;;;;;;;;5040899;28;20442;-59
2021/08/28 11:06:11;;;;;;;1.00;0.50;;;;;;;;;;5044381;28;20980;-59
2021/08/28 11:08:50;;;;;;;1.10;0.50;;;;;;;;;;5038826;28;20498;-58
2021/08/28 11:11:20;;;;;;;1.30;0.70;;;;;;;;;;5053056;28;20400;-59
2021/08/28 11:14:05;;;;;;;1.10;0.65;;;;;;;;;;5053781;28;20420;-59
2021/08/28 11:16:41;;;;;;;1.50;0.90;;;;;;;;;;5046653;28;20403;-59
2021/08/28 11:19:07;;;;;;;0.95;0.45;;;;;;;;;;5059057;28;20869;-60
2021/08/28 11:21:43;;;;;;;1.00;0.60;;;;;;;;;;5052024;28;20480;-59
2021/08/28 11:24:12;;;;;;;1.20;0.70;;;;;;;;;;5044341;28;20390;-58
2021/08/28 11:26:39;;;;;;;1.02;0.60;;;;;;;;;;5040290;28;20912;-58
2021/08/28 11:29:19;;;;;;;1.17;0.75;;;;;;;;;;5045241;28;20910;-57
2021/08/28 11:31:46;;;;;;;0.60;0.60;;;;;;;;;;5046372;28;20429;-58
2021/08/28 11:34:12;;;;;;;0.77;0.50;;;;;;;;;;5046293;28;20393;-57
2021/08/28 11:36:38;;;;;;;1.73;0.68;;;;;;;;;;5050371;28;20790;-58
2021/08/28 11:39:20;;;;;;;1.13;0.63;;;;;;;;;;5034922;28;20553;-57
2021/08/28 11:41:46;;;;;;;1.45;0.60;;;;;;;;;;5044470;28;20480;-59
2021/08/28 11:44:13;;;;;;;1.20;0.47;;;;;;;;;;5042881;28;20631;-57
2021/08/28 11:46:41;;;;;;;0.60;0.47;;;;;;;;;;5045283;28;20411;-59
2021/08/28 11:49:07;;;;;;;0.93;0.50;;;;;;;;;;5059628;28;20422;-58
2021/08/28 11:51:36;;;;;;;1.10;0.60;;;;;;;;;;5049731;28;20402;-58
2021/08/28 11:54:02;;;;;;;1.05;0.60;;;;;;;;;;5057432;28;20745;-58
2021/08/28 11:56:32;;;;;;;1.35;0.50;;;;;;;;;;5058736;28;20432;-56
2021/08/28 11:59:00;;;;;;;1.02;0.52;;;;;;;;;;5039878;28;20447;-59
2021/08/28 12:01:41;;;;;;;1.30;0.50;;;;;;;;;;5052843;28;20868;-58
2021/08/28 12:04:08;;;;;;;0.83;0.40;;;;;;;;;;5050657;28;20889;-59
2021/08/28 12:06:36;;;;;;;0.90;0.57;;;;;;;;;;5053940;28;20431;-59
2021/08/28 12:09:03;;;;;;;0.90;0.70;;;;;;;;;;5052948;28;20409;-58
2021/08/28 12:11:29;;;;;;;0.60;0.40;;;;;;;;;;5053378;28;20463;-59
2021/08/28 12:13:59;;;;;;;1.00;0.50;;;;;;;;;;5054791;28;20516;-57
2021/08/28 12:16:27;;;;;;;0.63;0.47;;;;;;;;;;5041191;28;20419;-59
2021/08/28 12:18:56;;;;;;;1.00;0.50;;;;;;;;;;5051205;28;20478;-57
2021/08/28 12:21:22;;;;;;;1.00;0.50;;;;;;;;;;5053402;28;20443;-56
2021/08/28 12:23:49;;;;;;;0.85;0.50;;;;;;;;;;5050589;28;20883;-58
2021/08/28 12:26:16;;;;;;;1.50;0.50;;;;;;;;;;5044702;28;20389;-59
2021/08/28 12:28:42;;;;;;;1.23;0.60;;;;;;;;;;5055936;28;20401;-59
2021/08/28 12:31:08;;;;;;;0.70;0.40;;;;;;;;;;5056328;28;20469;-59
2021/08/28 12:33:34;;;;;;;0.95;0.50;;;;;;;;;;5056794;28;20401;-59
2021/08/28 12:36:00;;;;;;;1.88;0.75;;;;;;;;;;5050528;28;20381;-59
2021/08/28 12:38:33;;;;;;;0.95;0.60;;;;;;;;;;5046157;28;20793;-59
2021/08/28 12:40:59;;;;;;;1.13;0.73;;;;;;;;;;5051237;28;20471;-58
2021/08/28 12:43:26;;;;;;;1.00;0.57;;;;;;;;;;5043773;28;20476;-59
2021/08/28 12:45:54;;;;;;;0.80;0.40;;;;;;;;;;5045959;28;20396;-58
2021/08/28 12:48:20;;;;;;;0.80;0.55;;;;;;;;;;5049900;28;20468;-59
2021/08/28 12:50:46;;;;;;;1.10;0.50;;;;;;;;;;5054110;28;20517;-57
2021/08/28 12:53:12;;;;;;;0.77;0.45;;;;;;;;;;5023532;28;20392;-57
2021/08/28 12:55:38;;;;;;;1.15;0.40;;;;;;;;;;5051047;28;20841;-58
2021/08/28 12:58:07;;;;;;;0.63;0.40;;;;;;;;;;5050371;28;20393;-57
2021/08/28 13:00:40;;;;;;;1.00;0.50;;;;;;;;;;5050601;28;20393;-59
2021/08/28 13:03:22;;;;;;;0.70;0.40;;;;;;;;;;5038223;28;20399;-57
2021/08/28 13:05:48;;;;;;;1.13;0.60;;;;;;;;;;5044568;28;20478;-58
2021/08/28 13:08:14;;;;;;;0.40;0.30;;;;;;;;;;5052598;28;20715;-58
2021/08/28 13:10:40;;;;;;;0.80;0.50;;;;;;;;;;5064591;28;20547;-57
2021/08/28 13:13:07;;;;;;;0.98;0.50;;;;;;;;;;5052814;28;20458;-58
2021/08/28 13:15:40;;;;;;;0.43;0.30;;;;;;;;;;5050604;28;20376;-59
2021/08/28 13:18:16;;;;;;;0.85;0.43;;;;;;;;;;5041380;28;20412;-58
2021/08/28 13:20:46;;;;;;;0.90;0.60;;;;;;;;;;5067191;28;20383;-58
2021/08/28 13:23:14;;;;;;;0.90;0.50;;;;;;;;;;5054822;28;20954;-58
2021/08/28 13:25:41;;;;;;;0.75;0.45;;;;;;;;;;5056305;28;20393;-58
2021/08/28 13:28:17;;;;;;;0.77;0.50;;;;;;;;;;5043835;28;20971;-58
2021/08/28 13:30:43;;;;;;;1.58;0.55;;;;;;;;;;5034160;28;20381;-59
2021/08/28 13:33:09;;;;;;;0.75;0.40;;;;;;;;;;5049975;28;20464;-58
2021/08/28 13:35:36;;;;;;;0.60;0.30;;;;;;;;;;5054978;28;20474;-58
2021/08/28 13:38:03;;;;;;;1.00;0.32;;;;;;;;;;5064627;28;20395;-59
2021/08/28 13:40:29;;;;;;;0.70;0.57;;;;;;;;;;5055032;28;20385;-55
2021/08/28 13:42:55;;;;;;;2.40;0.50;;;;;;;;;;5061443;28;20388;-58
2021/08/28 13:45:22;;;;;;;2.20;0.50;;;;;;;;;;5060780;28;20391;-59
2021/08/28 13:47:48;;;;;;;0.90;0.50;;;;;;;;;;5056004;28;20381;-58
2021/08/28 13:50:15;;;;;;;0.90;0.50;;;;;;;;;;5056694;28;20407;-58
2021/08/28 13:52:41;;;;;;;0.90;0.50;;;;;;;;;;5062742;28;20385;-59
2021/08/28 13:55:08;;;;;;;0.80;0.40;;;;;;;;;;5062434;28;20735;-58
2021/08/28 13:57:34;;;;;;;1.05;0.50;;;;;;;;;;5054323;28;20385;-56
2021/08/28 14:00:00;;;;;;;0.75;0.40;;;;;;;;;;5049241;28;20436;-56
2021/08/28 14:02:26;;;;;;;0.77;0.47;;;;;;;;;;5051637;28;20472;-59
2021/08/28 14:04:52;;;;;;;1.30;0.70;;;;;;;;;;5052446;28;20491;-58
2021/08/28 14:07:18;;;;;;;1.08;0.55;;;;;;;;;;5052926;28;20494;-58
2021/08/28 14:09:44;;;;;;;0.68;0.40;;;;;;;;;;5052437;28;20437;-57
2021/08/28 14:12:10;;;;;;;1.87;0.43;;;;;;;;;;5056041;28;20397;-57
2021/08/28 14:14:37;;;;;;;0.90;0.45;;;;;;;;;;5058222;28;20842;-59
2021/08/28 14:17:04;;;;;;;1.02;0.50;;;;;;;;;;5050493;28;20413;-58
2021/08/28 14:19:30;;;;;;;1.00;0.50;;;;;;;;;;5052611;28;20830;-59
2021/08/28 14:21:57;;;;;;;1.02;0.52;;;;;;;;;;5061463;28;20870;-58
2021/08/28 14:24:23;;;;;;;0.80;0.50;;;;;;;;;;5057509;28;20468;-56
2021/08/28 14:26:49;;;;;;;1.17;0.60;;;;;;;;;;5059374;28;20464;-58
2021/08/28 14:29:16;;;;;;;1.50;0.40;;;;;;;;;;5055146;28;20409;-58
2021/08/28 14:31:42;;;;;;;0.60;0.40;;;;;;;;;;5055435;28;20378;-58
2021/08/28 14:34:08;;;;;;;0.93;0.40;;;;;;;;;;5062744;28;20376;-57
2021/08/28 14:36:34;;;;;;;0.53;0.33;;;;;;;;;;5050879;28;20385;-59
2021/08/28 14:39:04;;;;;;;2.10;0.55;;;;;;;;;;5050556;28;20416;-59
2021/08/28 14:41:31;;;;;;;0.60;0.40;;;;;;;;;;5056373;28;20393;-56
2021/08/28 14:43:57;;;;;;;1.23;0.80;;;;;;;;;;5059272;28;20433;-58